METAR AND TAF INFORMATION

METAR FOR YPXM
ADDS - METARS form results

(1755 UTC 27 November 2022)
Data provider http://aviationweather.gov/metar/data/
 
METAR text: YPXM 271730Z AUTO 13005KT 9999 // BKN012 BKN029 23/23 Q1012
Conditions at: YPXM (CHRISTMAS ISL (P, AU) observed 1730 UTC 27 November 2022
Temperature: 23.0°C (73°F)
Dewpoint: 23.0°C (73°F) [RH = 100%]
Pressure (altimeter): 29.88 inches Hg (1012.0 mb)
Winds: from the SE (130 degrees) at 6 MPH (5 knots; 2.6 m/s)
Visibility: 6 or more miles (10+ km)
Ceiling: 1200 feet AGL
Clouds: broken clouds at 1200 feet AGL
broken clouds at 2900 feet AGL
Weather: no significant weather observed at this time

METAR text: YPXM 271700Z AUTO 13005KT 9999 // BKN012 BKN018 BKN027 24/23 Q1012
Conditions at: YPXM (CHRISTMAS ISL (P, AU) observed 1700 UTC 27 November 2022
Temperature: 24.0°C (75°F)
Dewpoint: 23.0°C (73°F) [RH = 94%]
Pressure (altimeter): 29.88 inches Hg (1012.0 mb)
Winds: from the SE (130 degrees) at 6 MPH (5 knots; 2.6 m/s)
Visibility: 6 or more miles (10+ km)
Ceiling: 1200 feet AGL
Clouds: broken clouds at 1200 feet AGL
broken clouds at 1800 feet AGL
broken clouds at 2700 feet AGL
Weather: no significant weather observed at this time

Forecast for: YPXM (CHRISTMAS ISL (P, AU)
Text: TAF YPXM 271705Z 2718/2818 13008KT 9999 BKN010
Forecast period: 1800 UTC 27 November 2022 to 1800 UTC 28 November 2022
Forecast type: FROM: standard forecast or significant change
Winds: from the SE (130 degrees) at 9 MPH (8 knots; 4.1 m/s)
Visibility: 6 or more miles (10+ km)
Ceiling: 1000 feet AGL
Clouds: broken clouds at 1000 feet AGL
Weather: no significant weather forecast for this period

 

AIRPORT MAP

 

RUNWAY INFORMATION

Runway 18 Runway length 6900 ft Runway width 148 ft
Runway elevation 916 ft Runway displaced threshold 0 ft Runway heading 175
Runway 36 Runway length 6900 ft Runway width 148 ft
Runway elevation 810 ft Runway displaced threshold 0 ft Runway heading 355

 

AIRPORT FREQUENCIES

Type CTAF Name CTAF Frequency 122.8 MHZ
Type FSS Name RDO Frequency 347 MHZ

 

AIRPORT NEAR NAVIGATION AIDS

Type VOR-DME Name Christmas Island Frequency 112400 KHZ